createdAt,value
2019-05-30T00:02:02.634Z,9.63
2019-05-30T00:08:47.875Z,10.30
2019-05-30T00:15:32.835Z,11.70
2019-05-30T00:22:17.931Z,11.57
2019-05-30T00:29:03.037Z,15.00
2019-05-30T00:35:48.238Z,15.53
2019-05-30T00:42:33.194Z,17.37
2019-05-30T00:49:18.068Z,14.87
2019-05-30T00:56:03.147Z,14.77
2019-05-30T01:02:48.532Z,18.00
2019-05-30T01:09:51.871Z,16.97
2019-05-30T01:16:37.208Z,16.27
2019-05-30T01:23:22.244Z,15.40
2019-05-30T01:30:08.981Z,15.80
2019-05-30T01:36:53.922Z,17.33
2019-05-30T01:43:39.268Z,17.13
2019-05-30T01:50:24.880Z,16.67
2019-05-30T01:57:09.839Z,14.63
2019-05-30T02:03:54.882Z,13.47
2019-05-30T02:10:39.830Z,13.30
2019-05-30T02:17:24.984Z,14.00
2019-05-30T02:24:12.015Z,11.67
2019-05-30T02:30:57.018Z,12.20
2019-05-30T02:37:42.055Z,12.43
2019-05-30T02:44:27.023Z,14.43
2019-05-30T02:51:12.644Z,15.37
2019-05-30T02:57:58.043Z,16.93
2019-05-30T03:04:43.129Z,17.33
2019-05-30T03:11:28.519Z,20.20
2019-05-30T03:18:14.949Z,20.20
2019-05-30T03:25:03.131Z,21.60
2019-05-30T03:31:49.167Z,20.90
2019-05-30T03:38:34.273Z,17.80
2019-05-30T03:45:21.849Z,18.37
2019-05-30T03:52:08.161Z,18.63
2019-05-30T03:58:56.784Z,19.30
2019-05-30T04:05:54.369Z,17.50
2019-05-30T04:13:14.549Z,17.13
2019-05-30T04:19:59.298Z,18.10
2019-05-30T04:26:44.244Z,16.55
2019-05-30T04:33:32.954Z,15.87
2019-05-30T04:40:17.998Z,14.13
2019-05-30T04:47:04.058Z,14.70
2019-05-30T04:53:48.958Z,13.43
2019-05-30T05:00:34.141Z,11.93
2019-05-30T05:07:19.882Z,7.57
2019-05-30T05:14:04.881Z,6.13
2019-05-30T05:20:49.950Z,6.00
2019-05-30T05:27:35.260Z,5.72
2019-05-30T05:34:20.677Z,5.72
2019-05-30T05:41:06.020Z,5.20
2019-05-30T05:47:51.107Z,5.53
2019-05-30T05:54:36.124Z,5.22
2019-05-30T06:01:21.476Z,5.37
2019-05-30T06:08:07.628Z,5.87
2019-05-30T06:14:52.803Z,5.17
2019-05-30T06:21:51.035Z,5.65
2019-05-30T06:28:24.693Z,4.47
2019-05-30T06:35:10.265Z,4.85
2019-05-30T06:41:55.418Z,5.12
2019-05-30T06:48:40.377Z,5.00
2019-05-30T06:55:25.334Z,4.60
2019-05-30T07:02:11.441Z,4.55
2019-05-30T07:08:56.501Z,4.65
2019-05-30T07:15:41.532Z,4.10
2019-05-30T07:22:27.632Z,4.00
2019-05-30T07:29:12.649Z,4.28
2019-05-30T07:35:57.624Z,3.85
2019-05-30T07:42:43.451Z,3.65
2019-05-30T07:49:28.391Z,3.93
2019-05-30T07:56:13.341Z,3.33
2019-05-30T08:02:58.287Z,3.70
2019-05-30T08:09:43.259Z,3.72
2019-05-30T08:16:29.152Z,3.58
2019-05-30T08:23:14.240Z,3.50
2019-05-30T08:29:59.299Z,2.90
2019-05-30T08:36:44.364Z,2.47
2019-05-30T08:43:29.601Z,1.90
2019-05-30T08:50:14.840Z,2.12
2019-05-30T08:56:59.707Z,2.50
2019-05-30T09:03:44.670Z,2.10
2019-05-30T09:10:29.675Z,1.95
2019-05-30T09:17:14.732Z,2.00
2019-05-30T09:24:01.393Z,2.20
2019-05-30T09:30:46.680Z,1.95
2019-05-30T09:37:32.859Z,1.72
2019-05-30T09:44:17.889Z,1.67
2019-05-30T09:51:02.903Z,1.65
2019-05-30T09:57:48.104Z,1.90
2019-05-30T10:04:33.012Z,1.80
2019-05-30T10:11:18.213Z,1.80
2019-05-30T10:18:03.211Z,1.40
2019-05-30T10:24:49.104Z,1.60
2019-05-30T10:31:34.382Z,1.87
2019-05-30T10:38:20.723Z,1.40
2019-05-30T10:45:08.697Z,1.90
2019-05-30T10:51:57.519Z,1.90
2019-05-30T10:58:40.301Z,2.00
2019-05-30T11:05:25.666Z,2.00
2019-05-30T11:12:11.009Z,1.92
2019-05-30T11:18:56.206Z,1.67
2019-05-30T11:25:42.227Z,1.85
2019-05-30T11:32:27.289Z,2.05
2019-05-30T11:39:13.051Z,1.90
2019-05-30T11:45:57.997Z,1.50
2019-05-30T11:52:43.608Z,1.47
2019-05-30T11:59:28.613Z,1.70
2019-05-30T12:06:14.220Z,1.52
2019-05-30T12:13:01.627Z,2.27
2019-05-30T12:19:47.584Z,1.80
2019-05-30T12:26:33.935Z,1.75
2019-05-30T12:33:19.138Z,1.57
2019-05-30T12:40:07.521Z,1.60
2019-05-30T12:46:53.374Z,1.40
2019-05-30T12:53:38.514Z,1.25
2019-05-30T13:00:29.823Z,1.92
2019-05-30T13:07:14.734Z,1.60
2019-05-30T13:14:00.672Z,1.57
2019-05-30T13:20:45.852Z,1.50
2019-05-30T13:27:30.881Z,2.05
2019-05-30T13:34:15.832Z,1.80
2019-05-30T13:41:01.923Z,1.72
2019-05-30T13:47:48.348Z,2.00
2019-05-30T13:54:35.268Z,1.65
2019-05-30T14:01:20.205Z,1.67
2019-05-30T14:08:09.235Z,1.85
2019-05-30T14:14:52.058Z,1.57
2019-05-30T14:21:37.136Z,1.52
2019-05-30T14:28:22.612Z,1.47
2019-05-30T14:35:08.578Z,1.87
2019-05-30T14:41:53.645Z,1.80
2019-05-30T14:48:38.923Z,1.80
2019-05-30T14:55:23.976Z,1.70
2019-05-30T15:02:09.182Z,1.50
2019-05-30T15:08:54.673Z,1.80
2019-05-30T15:15:39.739Z,1.80
2019-05-30T15:22:24.680Z,1.90
2019-05-30T15:29:10.055Z,2.30
2019-05-30T15:35:56.447Z,1.62
2019-05-30T15:42:41.438Z,1.83
2019-05-30T15:49:26.473Z,1.77
2019-05-30T15:56:11.709Z,1.87
2019-05-30T16:02:56.784Z,1.67
2019-05-30T16:09:47.185Z,2.00
2019-05-30T16:16:39.505Z,2.02
2019-05-30T16:23:16.322Z,1.77
2019-05-30T16:30:02.732Z,1.87
2019-05-30T16:36:49.527Z,1.98
2019-05-30T16:43:34.536Z,2.22
2019-05-30T16:50:23.352Z,2.02
2019-05-30T16:57:08.386Z,2.17
2019-05-30T17:03:54.491Z,2.08
2019-05-30T17:10:39.515Z,2.33
2019-05-30T17:17:24.470Z,2.22
2019-05-30T17:24:09.432Z,2.45
2019-05-30T17:30:54.607Z,2.40
2019-05-30T17:37:39.686Z,2.15
2019-05-30T17:52:28.355Z,2.37
2019-05-30T17:59:14.406Z,2.72
2019-05-30T18:05:59.425Z,2.62
2019-05-30T18:13:20.989Z,2.67
2019-05-30T18:28:09.068Z,2.20
2019-05-30T18:34:57.225Z,2.02
2019-05-30T18:41:40.613Z,2.20
2019-05-30T18:48:25.705Z,2.08
2019-05-30T18:55:11.416Z,1.90
2019-05-30T19:01:56.358Z,1.92
2019-05-30T19:08:41.316Z,1.90
2019-05-30T19:15:29.314Z,1.95
2019-05-30T19:22:13.068Z,1.70
2019-05-30T19:28:57.962Z,2.10
2019-05-30T19:35:43.940Z,2.25
2019-05-30T19:50:32.538Z,2.12
2019-05-30T19:57:18.090Z,2.17
2019-05-30T20:04:03.091Z,2.10
2019-05-30T20:10:47.946Z,2.20
2019-05-30T20:17:33.380Z,2.30
2019-05-30T20:24:18.342Z,2.87
2019-05-30T20:31:03.207Z,2.90
2019-05-30T20:37:48.218Z,2.53
2019-05-30T20:44:33.140Z,4.15
2019-05-30T20:51:21.243Z,4.15
2019-05-30T20:58:04.799Z,2.72
2019-05-30T21:04:49.802Z,3.15
2019-05-30T21:11:36.094Z,2.72
2019-05-30T21:18:21.192Z,3.00
2019-05-30T21:25:07.852Z,3.25
2019-05-30T21:31:52.834Z,2.70
2019-05-30T21:38:37.893Z,2.30
2019-05-30T21:45:23.115Z,2.67
2019-05-30T21:52:07.971Z,2.42
2019-05-30T21:58:52.948Z,3.12
2019-05-30T22:05:37.888Z,2.27
2019-05-30T22:12:22.883Z,2.55
2019-05-30T22:19:07.772Z,2.58
2019-05-30T22:25:53.039Z,2.35
2019-05-30T22:32:38.603Z,2.10
2019-05-30T22:39:23.587Z,2.07
2019-05-30T22:46:08.596Z,2.50
2019-05-30T22:52:53.518Z,2.20
2019-05-30T23:15:30.520Z,1.80
2019-05-30T23:22:15.375Z,2.52
2019-05-30T23:29:00.599Z,2.95
2019-05-30T23:35:45.459Z,2.03
2019-05-30T23:50:33.991Z,2.43
2019-05-30T23:57:18.850Z,2.43
